< < Back
Terminal Aerodrome Forecast


Current Version              Previous Versions:   1  2  3  4  5  6  7  8  9  

Terminal Aerodrome Forecast

182
FTUS42 KFFC 281558 AAB
TAFATL
TAF AMD
KATL 281558Z 2816/0118 08012G18KT P6SM BKN100
     FM281900 08012G18KT P6SM SCT040 BKN090
     FM010300 08009KT P6SM SCT015 BKN035
     FM010600 08009KT P6SM -RA BKN015
     FM011000 08008KT 4SM -RA OVC005
     FM011500 08007KT 6SM -RA OVC008=



Latest METAR

523
SAUS70 KWBC 281900
MTRATL
METAR KATL 281852Z 09011KT 10SM BKN140 BKN250 12/M01 A3052 RMK AO2
SLP339 T01171011


USA.gov is the U.S. government's official web portal to all federal, state and local government web resources and services.